createdAt,value
2023-11-21T00:02:16.491Z,950.61
2023-11-21T00:04:42.927Z,950.64
2023-11-21T00:07:09.340Z,950.67
2023-11-21T00:09:35.776Z,950.67
2023-11-21T00:12:02.212Z,950.68
2023-11-21T00:14:28.678Z,950.68
2023-11-21T00:16:55.162Z,950.61
2023-11-21T00:19:21.534Z,950.64
2023-11-21T00:21:47.886Z,950.68
2023-11-21T00:24:14.293Z,950.71
2023-11-21T00:26:40.698Z,950.69
2023-11-21T00:29:07.188Z,950.61
2023-11-21T00:31:33.560Z,950.56
2023-11-21T00:34:00.005Z,950.49
2023-11-21T00:36:26.364Z,950.58
2023-11-21T00:38:52.872Z,950.58
2023-11-21T00:41:19.215Z,950.56
2023-11-21T00:43:45.765Z,950.59
2023-11-21T00:46:12.200Z,950.69
2023-11-21T00:48:38.605Z,950.63
2023-11-21T00:51:05.033Z,950.64
2023-11-21T00:53:31.480Z,950.60
2023-11-21T00:55:57.865Z,950.57
2023-11-21T00:58:24.335Z,950.54
2023-11-21T01:00:50.726Z,950.55
2023-11-21T01:03:17.256Z,950.54
2023-11-21T01:05:43.404Z,950.54
2023-11-21T01:08:09.809Z,950.45
2023-11-21T01:10:36.256Z,950.38
2023-11-21T01:13:02.605Z,950.48
2023-11-21T01:15:29.026Z,950.54
2023-11-21T01:17:55.428Z,950.57
2023-11-21T01:20:21.896Z,950.57
2023-11-21T01:22:48.266Z,950.54
2023-11-21T01:25:14.706Z,950.56
2023-11-21T01:27:41.045Z,950.59
2023-11-21T01:30:07.471Z,950.54
2023-11-21T01:32:34.032Z,950.55
2023-11-21T01:35:00.310Z,950.45
2023-11-21T01:37:26.691Z,950.48
2023-11-21T01:39:53.038Z,950.49
2023-11-21T01:42:19.444Z,950.53
2023-11-21T01:44:45.796Z,950.62
2023-11-21T01:47:12.355Z,950.57
2023-11-21T01:49:38.698Z,950.56
2023-11-21T01:52:05.101Z,950.43
2023-11-21T01:54:31.507Z,950.38
2023-11-21T01:56:57.936Z,950.44
2023-11-21T01:59:24.285Z,950.44
2023-11-21T02:01:50.754Z,950.51
2023-11-21T02:04:17.167Z,950.53
2023-11-21T02:06:43.749Z,950.44
2023-11-21T02:09:10.145Z,950.43
2023-11-21T02:11:36.576Z,950.38
2023-11-21T02:14:02.964Z,950.42
2023-11-21T02:16:29.404Z,950.40
2023-11-21T02:18:55.855Z,950.41
2023-11-21T02:21:22.199Z,950.43
2023-11-21T02:23:48.595Z,950.35
2023-11-21T02:26:15.003Z,950.38
2023-11-21T02:28:41.416Z,950.36
2023-11-21T02:31:07.864Z,950.38
2023-11-21T02:33:34.226Z,950.37
2023-11-21T02:36:00.616Z,950.38
2023-11-21T02:38:26.977Z,950.39
2023-11-21T02:40:53.452Z,950.34
2023-11-21T02:43:19.882Z,950.33
2023-11-21T02:45:46.207Z,950.37
2023-11-21T02:48:12.684Z,950.35
2023-11-21T02:50:39.083Z,950.34
2023-11-21T02:53:05.484Z,950.31
2023-11-21T02:55:32.016Z,950.36
2023-11-21T02:57:58.308Z,950.39
2023-11-21T03:00:24.698Z,950.40
2023-11-21T03:02:51.212Z,950.42
2023-11-21T03:05:17.600Z,950.36
2023-11-21T03:07:43.959Z,950.34
2023-11-21T03:10:10.955Z,950.35
2023-11-21T03:12:36.800Z,950.41
2023-11-21T03:15:03.267Z,950.42
2023-11-21T03:17:29.658Z,950.45
2023-11-21T03:19:56.124Z,950.32
2023-11-21T03:22:22.424Z,950.40
2023-11-21T03:24:48.807Z,950.50
2023-11-21T03:27:15.254Z,950.45
2023-11-21T03:29:41.684Z,950.46
2023-11-21T03:32:08.066Z,950.45
2023-11-21T03:34:34.549Z,950.54
2023-11-21T03:37:00.952Z,950.46
2023-11-21T03:39:27.423Z,950.44
2023-11-21T03:41:53.743Z,950.42
2023-11-21T03:44:20.171Z,950.42
2023-11-21T03:46:46.584Z,950.38
2023-11-21T03:49:13.010Z,950.34
2023-11-21T03:51:39.403Z,950.27
2023-11-21T03:54:05.795Z,950.19
2023-11-21T03:56:32.138Z,950.25
2023-11-21T03:58:58.572Z,950.23
2023-11-21T04:01:24.972Z,950.21
2023-11-21T04:03:51.598Z,950.26
2023-11-21T04:06:17.774Z,950.27
2023-11-21T04:08:44.210Z,950.20
2023-11-21T04:11:10.566Z,950.18
2023-11-21T04:13:37.023Z,950.19
2023-11-21T04:16:03.375Z,950.21
2023-11-21T04:18:29.775Z,950.19
2023-11-21T04:20:56.177Z,950.18
2023-11-21T04:23:22.588Z,950.15
2023-11-21T04:25:49.059Z,950.16
2023-11-21T04:28:15.426Z,950.21
2023-11-21T04:30:41.867Z,950.15
2023-11-21T04:33:08.231Z,950.15
2023-11-21T04:35:34.592Z,950.16
2023-11-21T04:38:00.986Z,950.09
2023-11-21T04:40:27.446Z,950.11
2023-11-21T04:42:53.879Z,950.09
2023-11-21T04:45:20.230Z,950.12
2023-11-21T04:47:46.758Z,950.18
2023-11-21T04:50:13.019Z,950.22
2023-11-21T04:52:39.530Z,950.22
2023-11-21T04:55:05.854Z,950.20
2023-11-21T04:57:32.264Z,950.28
2023-11-21T04:59:58.627Z,950.29
2023-11-21T05:02:33.611Z,950.26
2023-11-21T05:04:51.427Z,950.26
2023-11-21T05:07:17.825Z,950.26
2023-11-21T05:09:44.163Z,950.32
2023-11-21T05:12:10.615Z,950.22
2023-11-21T05:14:37.144Z,950.14
2023-11-21T05:17:03.705Z,950.15
2023-11-21T05:19:30.011Z,950.16
2023-11-21T05:21:56.451Z,950.10
2023-11-21T05:24:22.850Z,950.11
2023-11-21T05:26:49.278Z,950.11
2023-11-21T05:29:15.683Z,950.22
2023-11-21T05:31:42.207Z,950.38
2023-11-21T05:34:08.470Z,950.32
2023-11-21T05:36:34.909Z,950.30
2023-11-21T05:39:01.271Z,950.33
2023-11-21T05:41:27.737Z,950.39
2023-11-21T05:43:54.126Z,950.37
2023-11-21T05:46:20.582Z,950.39
2023-11-21T05:48:47.008Z,950.41
2023-11-21T05:51:13.429Z,950.42
2023-11-21T05:53:39.810Z,950.45
2023-11-21T05:56:06.244Z,950.37
2023-11-21T05:58:32.750Z,950.25
2023-11-21T06:00:59.094Z,950.29
2023-11-21T06:03:25.507Z,950.35
2023-11-21T06:05:51.967Z,950.25
2023-11-21T06:08:18.377Z,950.24
2023-11-21T06:10:44.856Z,950.33
2023-11-21T06:13:11.199Z,950.35
2023-11-21T06:15:37.607Z,950.37
2023-11-21T06:18:04.110Z,950.42
2023-11-21T06:20:30.408Z,950.40
2023-11-21T06:22:56.783Z,950.49
2023-11-21T06:25:23.244Z,950.49
2023-11-21T06:27:49.563Z,950.57
2023-11-21T06:30:15.976Z,950.49
2023-11-21T06:32:42.437Z,950.47
2023-11-21T06:35:08.756Z,950.55
2023-11-21T06:37:35.171Z,950.57
2023-11-21T06:40:01.656Z,950.55
2023-11-21T06:42:28.035Z,950.56
2023-11-21T06:44:54.511Z,950.61
2023-11-21T06:47:20.997Z,950.57
2023-11-21T06:49:47.335Z,950.58
2023-11-21T06:52:13.707Z,950.59
2023-11-21T06:54:40.125Z,950.59
2023-11-21T06:57:06.506Z,950.62
2023-11-21T06:59:32.932Z,950.64
2023-11-21T07:01:59.422Z,950.66
2023-11-21T07:04:25.950Z,950.59
2023-11-21T07:06:52.353Z,950.61
2023-11-21T07:09:18.795Z,950.62
2023-11-21T07:11:45.153Z,950.63
2023-11-21T07:14:11.687Z,950.52
2023-11-21T07:16:38.201Z,950.58
2023-11-21T07:19:04.716Z,950.49
2023-11-21T07:21:31.121Z,950.48
2023-11-21T07:23:57.544Z,950.55
2023-11-21T07:26:23.937Z,950.50
2023-11-21T07:28:50.386Z,950.51
2023-11-21T07:31:16.822Z,950.63
2023-11-21T07:33:43.181Z,950.63
2023-11-21T07:36:09.616Z,950.64
2023-11-21T07:38:35.996Z,950.55
2023-11-21T07:41:02.508Z,950.61
2023-11-21T07:43:28.921Z,950.57
2023-11-21T07:45:56.424Z,950.55
2023-11-21T07:48:22.961Z,950.54
2023-11-21T07:50:49.372Z,950.53
2023-11-21T07:53:15.783Z,950.55
2023-11-21T07:55:42.215Z,950.48
2023-11-21T07:58:08.613Z,950.44
2023-11-21T08:00:35.030Z,950.39
2023-11-21T08:03:01.487Z,950.33
2023-11-21T08:05:34.829Z,950.35
2023-11-21T08:07:54.255Z,950.35
2023-11-21T08:10:20.682Z,950.20
2023-11-21T08:12:47.090Z,950.26
2023-11-21T08:15:13.540Z,950.14
2023-11-21T08:17:40.052Z,950.24
2023-11-21T08:20:06.425Z,950.29
2023-11-21T08:22:32.816Z,950.31
2023-11-21T08:24:59.319Z,950.34
2023-11-21T08:27:25.663Z,950.26
2023-11-21T08:29:52.172Z,950.27
2023-11-21T08:32:18.547Z,950.32
2023-11-21T08:34:45.080Z,950.30
2023-11-21T08:37:11.372Z,950.37
2023-11-21T08:39:37.856Z,950.28
2023-11-21T08:42:04.247Z,950.31
2023-11-21T08:44:30.709Z,950.21
2023-11-21T08:46:57.093Z,950.22
2023-11-21T08:49:23.492Z,950.21
2023-11-21T08:51:49.887Z,950.18
2023-11-21T08:54:16.307Z,950.22
2023-11-21T08:56:42.717Z,950.16
2023-11-21T08:59:09.315Z,950.08
2023-11-21T09:01:35.731Z,950.00
2023-11-21T09:04:02.129Z,950.01
2023-11-21T09:06:28.435Z,949.89
2023-11-21T09:08:54.920Z,949.83
2023-11-21T09:11:21.249Z,949.83
2023-11-21T09:13:47.650Z,949.68
2023-11-21T09:16:14.045Z,949.57
2023-11-21T09:18:40.441Z,949.54
2023-11-21T09:21:06.818Z,949.53
2023-11-21T09:23:33.218Z,949.46
2023-11-21T09:25:59.606Z,949.37
2023-11-21T09:28:26.082Z,949.43
2023-11-21T09:30:52.432Z,949.33
2023-11-21T09:33:18.828Z,949.19
2023-11-21T09:35:45.311Z,949.07
2023-11-21T09:38:11.895Z,949.07
2023-11-21T09:40:38.113Z,949.01
2023-11-21T09:43:04.553Z,948.91
2023-11-21T09:45:30.925Z,948.85
2023-11-21T09:47:57.433Z,948.96
2023-11-21T09:50:23.701Z,948.82
2023-11-21T09:52:50.204Z,948.78
2023-11-21T09:55:16.535Z,948.60
2023-11-21T09:57:42.989Z,948.52
2023-11-21T10:00:09.345Z,948.58
2023-11-21T10:02:35.948Z,948.49
2023-11-21T10:05:02.209Z,948.43
2023-11-21T10:07:28.630Z,948.44
2023-11-21T10:09:54.968Z,948.47
2023-11-21T10:12:21.429Z,948.47
2023-11-21T10:14:47.833Z,948.50
2023-11-21T10:17:14.318Z,948.35
2023-11-21T10:19:40.784Z,948.30
2023-11-21T10:22:07.116Z,948.31
2023-11-21T10:24:41.425Z,948.25
2023-11-21T10:26:59.970Z,948.22
2023-11-21T10:29:26.356Z,948.26
2023-11-21T10:31:53.026Z,948.15
2023-11-21T10:34:19.151Z,948.12
2023-11-21T10:36:45.627Z,948.10
2023-11-21T10:39:12.013Z,948.04
2023-11-21T10:41:38.413Z,948.06
2023-11-21T10:44:04.874Z,947.99
2023-11-21T10:46:31.434Z,947.97
2023-11-21T10:48:57.713Z,947.94
2023-11-21T10:51:24.164Z,947.89
2023-11-21T10:53:50.560Z,947.96
2023-11-21T10:56:16.972Z,947.89
2023-11-21T10:58:43.403Z,947.83
2023-11-21T11:01:09.818Z,947.87
2023-11-21T11:03:36.270Z,947.79
2023-11-21T11:06:02.900Z,947.79
2023-11-21T11:08:29.266Z,947.75
2023-11-21T11:10:55.769Z,947.78
2023-11-21T11:13:22.091Z,947.72
2023-11-21T11:15:48.538Z,947.72
2023-11-21T11:18:15.100Z,947.59
2023-11-21T11:20:41.500Z,947.60
2023-11-21T11:23:07.924Z,947.59
2023-11-21T11:25:34.304Z,947.48
2023-11-21T11:28:00.714Z,947.38
2023-11-21T11:30:27.191Z,947.33
2023-11-21T11:32:53.603Z,947.30
2023-11-21T11:35:19.969Z,947.21
2023-11-21T11:37:50.624Z,947.25
2023-11-21T11:40:17.233Z,947.27
2023-11-21T11:42:45.775Z,947.25
2023-11-21T11:45:12.278Z,947.27
2023-11-21T11:47:38.883Z,947.35
2023-11-21T11:50:05.199Z,947.42
2023-11-21T11:52:31.535Z,947.46
2023-11-21T11:54:57.921Z,947.54
2023-11-21T11:57:24.327Z,947.52
2023-11-21T11:59:50.740Z,947.44
2023-11-21T12:02:17.224Z,947.39
2023-11-21T12:04:43.714Z,947.38
2023-11-21T12:07:09.955Z,947.34
2023-11-21T12:09:36.403Z,947.37
2023-11-21T12:12:02.759Z,947.37
2023-11-21T12:14:29.214Z,947.40
2023-11-21T12:16:55.640Z,947.38
2023-11-21T12:19:22.045Z,947.40
2023-11-21T12:21:48.424Z,947.37
2023-11-21T12:24:15.319Z,947.32
2023-11-21T12:26:41.259Z,947.30
2023-11-21T12:29:07.724Z,947.28
2023-11-21T12:31:34.213Z,947.34
2023-11-21T12:34:00.549Z,947.31
2023-11-21T12:36:26.893Z,947.38
2023-11-21T12:38:53.334Z,947.44
2023-11-21T12:41:19.739Z,947.34
2023-11-21T12:43:46.229Z,947.31
2023-11-21T12:46:12.569Z,947.32
2023-11-21T12:48:39.004Z,947.23
2023-11-21T12:51:05.374Z,947.21
2023-11-21T12:53:31.831Z,947.12
2023-11-21T12:55:58.257Z,947.05
2023-11-21T12:58:24.659Z,947.06
2023-11-21T13:00:51.038Z,946.96
2023-11-21T13:03:17.630Z,946.94
2023-11-21T13:05:44.226Z,946.93
2023-11-21T13:08:10.312Z,946.92
2023-11-21T13:10:36.804Z,946.86
2023-11-21T13:13:03.142Z,946.95
2023-11-21T13:15:29.581Z,946.82
2023-11-21T13:17:55.997Z,946.85
2023-11-21T13:20:22.366Z,946.97
2023-11-21T13:22:48.834Z,947.00
2023-11-21T13:25:15.212Z,946.91
2023-11-21T13:27:41.772Z,946.88
2023-11-21T13:30:08.146Z,946.77
2023-11-21T13:32:34.551Z,946.77
2023-11-21T13:35:00.917Z,946.75
2023-11-21T13:37:27.341Z,946.76
2023-11-21T13:39:53.765Z,946.69
2023-11-21T13:42:20.174Z,946.72
2023-11-21T13:44:46.537Z,946.73
2023-11-21T13:47:12.954Z,946.65
2023-11-21T13:49:39.457Z,946.62
2023-11-21T13:52:05.879Z,946.60
2023-11-21T13:54:32.297Z,946.67
2023-11-21T13:56:59.604Z,946.67
2023-11-21T13:59:25.126Z,946.65
2023-11-21T14:01:51.610Z,946.61
2023-11-21T14:04:17.941Z,946.65
2023-11-21T14:06:44.335Z,946.59
2023-11-21T14:09:10.808Z,946.56
2023-11-21T14:11:43.280Z,946.61
2023-11-21T14:14:03.641Z,946.56
2023-11-21T14:16:30.039Z,946.64
2023-11-21T14:18:56.411Z,946.80
2023-11-21T14:21:22.825Z,946.79
2023-11-21T14:23:49.268Z,946.71
2023-11-21T14:26:15.655Z,946.76
2023-11-21T14:28:42.080Z,946.73
2023-11-21T14:31:08.482Z,946.66
2023-11-21T14:33:34.997Z,946.60
2023-11-21T14:36:01.410Z,946.64
2023-11-21T14:38:27.823Z,946.61
2023-11-21T14:40:54.323Z,946.55
2023-11-21T14:43:20.706Z,946.57
2023-11-21T14:45:47.151Z,946.53
2023-11-21T14:48:13.610Z,946.57
2023-11-21T14:50:39.957Z,946.67
2023-11-21T14:53:06.384Z,946.56
2023-11-21T14:55:32.979Z,946.58
2023-11-21T14:57:59.173Z,946.53
2023-11-21T15:00:25.668Z,946.48
2023-11-21T15:02:52.205Z,946.51
2023-11-21T15:05:18.683Z,946.58
2023-11-21T15:07:45.025Z,946.59
2023-11-21T15:10:11.399Z,946.53
2023-11-21T15:12:37.810Z,946.50
2023-11-21T15:15:04.237Z,946.41
2023-11-21T15:17:30.940Z,946.55
2023-11-21T15:19:57.285Z,946.55
2023-11-21T15:22:23.775Z,946.58
2023-11-21T15:24:50.160Z,946.45
2023-11-21T15:27:16.503Z,946.52
2023-11-21T15:29:42.921Z,946.48
2023-11-21T15:32:09.348Z,946.43
2023-11-21T15:34:35.739Z,946.50
2023-11-21T15:37:02.127Z,946.43
2023-11-21T15:39:28.558Z,946.30
2023-11-21T15:41:54.975Z,946.40
2023-11-21T15:44:21.401Z,946.28
2023-11-21T15:46:47.861Z,946.33
2023-11-21T15:49:14.307Z,946.18
2023-11-21T15:51:40.710Z,946.13
2023-11-21T15:54:07.176Z,946.21
2023-11-21T15:56:33.557Z,946.14
2023-11-21T15:59:01.077Z,946.18
2023-11-21T16:01:27.443Z,946.04
2023-11-21T16:03:53.930Z,946.18
2023-11-21T16:06:22.681Z,946.06
2023-11-21T16:08:49.084Z,946.14
2023-11-21T16:11:15.450Z,946.20
2023-11-21T16:13:41.911Z,946.18
2023-11-21T16:16:08.357Z,946.15
2023-11-21T16:18:34.856Z,946.09
2023-11-21T16:21:01.648Z,946.04
2023-11-21T16:23:28.050Z,946.04
2023-11-21T16:25:54.441Z,946.02
2023-11-21T16:28:20.962Z,946.07
2023-11-21T16:30:47.395Z,946.03
2023-11-21T16:33:13.856Z,945.99
2023-11-21T16:35:40.310Z,946.03
2023-11-21T16:38:06.750Z,945.94
2023-11-21T16:40:33.308Z,945.94
2023-11-21T16:42:59.744Z,945.86
2023-11-21T16:45:26.134Z,945.81
2023-11-21T16:47:52.628Z,945.88
2023-11-21T16:50:19.001Z,945.86
2023-11-21T16:52:45.464Z,945.96
2023-11-21T16:55:11.829Z,945.91
2023-11-21T16:57:38.213Z,945.85
2023-11-21T17:00:04.662Z,945.90
2023-11-21T17:02:31.097Z,945.86
2023-11-21T17:04:57.497Z,945.87
2023-11-21T17:07:24.245Z,945.89
2023-11-21T17:09:50.448Z,945.86
2023-11-21T17:12:17.112Z,945.85
2023-11-21T17:14:43.376Z,945.84
2023-11-21T17:17:09.936Z,945.77
2023-11-21T17:19:36.227Z,945.86
2023-11-21T17:22:02.761Z,945.77
2023-11-21T17:24:31.356Z,945.79
2023-11-21T17:26:57.917Z,945.87
2023-11-21T17:29:24.343Z,945.81
2023-11-21T17:31:50.756Z,945.71
2023-11-21T17:34:17.335Z,945.75
2023-11-21T17:36:44.020Z,945.65
2023-11-21T17:39:10.427Z,945.61
2023-11-21T17:41:36.860Z,945.55
2023-11-21T17:44:03.456Z,945.61
2023-11-21T17:46:29.851Z,945.68
2023-11-21T17:48:56.285Z,945.65
2023-11-21T17:51:22.682Z,945.65
2023-11-21T17:53:49.085Z,945.66
2023-11-21T17:56:16.612Z,945.78
2023-11-21T17:58:41.994Z,945.73
2023-11-21T18:01:08.421Z,945.77
2023-11-21T18:03:34.809Z,945.76
2023-11-21T18:06:01.133Z,945.70
2023-11-21T18:08:27.599Z,945.76
2023-11-21T18:10:54.013Z,945.78
2023-11-21T18:13:20.439Z,945.69
2023-11-21T18:15:46.829Z,945.57
2023-11-21T18:18:13.481Z,945.70
2023-11-21T18:20:39.811Z,945.59
2023-11-21T18:23:06.510Z,945.60
2023-11-21T18:25:32.889Z,945.65
2023-11-21T18:27:59.379Z,945.67
2023-11-21T18:30:26.099Z,945.58
2023-11-21T18:32:52.603Z,945.69
2023-11-21T18:35:18.999Z,945.46
2023-11-21T18:37:45.426Z,945.51
2023-11-21T18:40:11.981Z,945.62
2023-11-21T18:42:38.308Z,945.45
2023-11-21T18:45:04.740Z,945.48
2023-11-21T18:47:31.692Z,945.47
2023-11-21T18:50:00.427Z,945.41
2023-11-21T18:52:31.231Z,945.43
2023-11-21T18:54:57.667Z,945.49
2023-11-21T18:57:24.068Z,945.36
2023-11-21T18:59:50.470Z,945.38
2023-11-21T19:02:17.068Z,945.39
2023-11-21T19:04:43.377Z,945.38
2023-11-21T19:07:09.979Z,945.33
2023-11-21T19:09:36.694Z,945.30
2023-11-21T19:12:03.089Z,945.48
2023-11-21T19:14:29.381Z,945.42
2023-11-21T19:16:55.940Z,945.40
2023-11-21T19:19:22.292Z,945.29
2023-11-21T19:21:48.710Z,945.41
2023-11-21T19:24:15.068Z,945.41
2023-11-21T19:26:41.511Z,945.30
2023-11-21T19:29:07.929Z,945.39
2023-11-21T19:31:34.300Z,945.36
2023-11-21T19:34:00.670Z,945.38
2023-11-21T19:36:27.165Z,945.44
2023-11-21T19:38:53.700Z,945.44
2023-11-21T19:41:20.238Z,945.43
2023-11-21T19:43:46.587Z,945.26
2023-11-21T19:46:12.973Z,945.32
2023-11-21T19:48:39.432Z,945.45
2023-11-21T19:51:05.838Z,945.49
2023-11-21T19:53:32.207Z,945.45
2023-11-21T19:55:58.628Z,945.47
2023-11-21T19:58:25.016Z,945.49
2023-11-21T20:00:51.416Z,945.46
2023-11-21T20:03:17.972Z,945.50
2023-11-21T20:05:44.293Z,945.40
2023-11-21T20:08:10.703Z,945.32
2023-11-21T20:10:37.089Z,945.28
2023-11-21T20:13:07.363Z,945.22
2023-11-21T20:15:29.932Z,945.34
2023-11-21T20:17:56.359Z,945.27
2023-11-21T20:20:22.798Z,945.26
2023-11-21T20:22:49.253Z,945.06
2023-11-21T20:25:15.671Z,945.13
2023-11-21T20:27:42.043Z,945.20
2023-11-21T20:30:08.670Z,945.17
2023-11-21T20:32:35.140Z,945.28
2023-11-21T20:35:01.575Z,945.37
2023-11-21T20:37:27.962Z,945.29
2023-11-21T20:39:54.442Z,945.31
2023-11-21T20:42:20.845Z,945.42
2023-11-21T20:44:47.291Z,945.41
2023-11-21T20:47:13.899Z,945.33
2023-11-21T20:49:48.022Z,945.43
2023-11-21T20:52:06.531Z,945.41
2023-11-21T20:54:33.028Z,945.33
2023-11-21T20:56:59.406Z,945.44
2023-11-21T20:59:26.236Z,945.39
2023-11-21T21:01:52.675Z,945.57
2023-11-21T21:04:19.003Z,945.46
2023-11-21T21:06:45.429Z,945.36
2023-11-21T21:09:11.834Z,945.38
2023-11-21T21:11:38.204Z,945.38
2023-11-21T21:14:04.921Z,945.22
2023-11-21T21:16:31.288Z,945.37
2023-11-21T21:18:57.692Z,945.23
2023-11-21T21:21:24.221Z,945.22
2023-11-21T21:23:50.756Z,945.36
2023-11-21T21:26:17.136Z,945.35
2023-11-21T21:28:43.595Z,945.21
2023-11-21T21:31:10.033Z,945.20
2023-11-21T21:33:36.575Z,945.17
2023-11-21T21:36:03.113Z,945.39
2023-11-21T21:38:29.699Z,945.23
2023-11-21T21:40:56.085Z,945.31
2023-11-21T21:43:22.515Z,945.29
2023-11-21T21:45:48.871Z,945.34
2023-11-21T21:48:15.345Z,945.34
2023-11-21T21:50:41.896Z,945.34
2023-11-21T21:53:08.447Z,945.37
2023-11-21T21:55:34.754Z,945.34
2023-11-21T21:58:01.319Z,945.37
2023-11-21T22:00:27.611Z,945.34
2023-11-21T22:02:54.288Z,945.33
2023-11-21T22:05:20.517Z,945.35
2023-11-21T22:07:47.159Z,945.31
2023-11-21T22:10:13.509Z,945.19
2023-11-21T22:12:39.964Z,945.29
2023-11-21T22:15:06.335Z,945.25
2023-11-21T22:17:32.937Z,945.29
2023-11-21T22:19:59.249Z,945.15
2023-11-21T22:22:25.632Z,945.28
2023-11-21T22:24:52.065Z,945.28
2023-11-21T22:27:18.538Z,945.32
2023-11-21T22:29:45.004Z,945.28
2023-11-21T22:32:11.527Z,945.23
2023-11-21T22:34:37.908Z,945.19
2023-11-21T22:37:04.351Z,945.17
2023-11-21T22:39:30.709Z,945.20
2023-11-21T22:41:57.197Z,945.19
2023-11-21T22:44:23.575Z,945.08
2023-11-21T22:46:50.122Z,945.15
2023-11-21T22:49:16.399Z,945.19
2023-11-21T22:51:42.947Z,945.29
2023-11-21T22:54:09.339Z,945.32
2023-11-21T22:56:35.803Z,945.22
2023-11-21T22:59:02.188Z,945.25
2023-11-21T23:01:28.716Z,945.28
2023-11-21T23:03:55.131Z,945.30
2023-11-21T23:06:21.452Z,945.23
2023-11-21T23:08:47.813Z,945.11
2023-11-21T23:11:14.330Z,945.20
2023-11-21T23:13:40.831Z,945.14
2023-11-21T23:16:07.380Z,945.15
2023-11-21T23:18:33.756Z,945.16
2023-11-21T23:21:00.130Z,945.13
2023-11-21T23:23:26.525Z,945.20
2023-11-21T23:25:52.989Z,945.09
2023-11-21T23:28:19.327Z,945.15
2023-11-21T23:30:45.726Z,945.14
2023-11-21T23:33:12.142Z,945.18
2023-11-21T23:35:38.562Z,945.10
2023-11-21T23:38:04.935Z,945.03
2023-11-21T23:40:31.394Z,945.09
2023-11-21T23:42:57.808Z,945.11
2023-11-21T23:45:24.256Z,945.16
2023-11-21T23:47:50.636Z,945.22
2023-11-21T23:50:17.084Z,945.20
2023-11-21T23:52:43.407Z,945.23
2023-11-21T23:55:10.103Z,945.20
2023-11-21T23:57:36.569Z,945.18
